sensor_id;sensor_type;location;lat;lon;timestamp;pressure;altitude;pressure_sealevel;temperature;humidity
19761;BME280;10039;42.632;23.408;2023-08-08T00:01:52;94823.72;;;20.65;65.85
19761;BME280;10039;42.632;23.408;2023-08-08T00:04:17;94829.72;;;20.75;66.11
19761;BME280;10039;42.632;23.408;2023-08-08T00:06:43;94824.03;;;20.47;64.85
19761;BME280;10039;42.632;23.408;2023-08-08T00:09:08;94837.59;;;20.28;65.77
19761;BME280;10039;42.632;23.408;2023-08-08T00:11:37;94828.69;;;20.22;65.70
19761;BME280;10039;42.632;23.408;2023-08-08T00:14:02;94818.66;;;20.08;66.12
19761;BME280;10039;42.632;23.408;2023-08-08T00:16:28;94837.75;;;20.38;66.31
19761;BME280;10039;42.632;23.408;2023-08-08T00:18:53;94818.59;;;20.02;65.57
19761;BME280;10039;42.632;23.408;2023-08-08T00:21:21;94845.09;;;20.13;66.08
19761;BME280;10039;42.632;23.408;2023-08-08T00:23:47;94831.53;;;20.13;65.96
19761;BME280;10039;42.632;23.408;2023-08-08T00:26:12;94813.75;;;19.92;66.14
19761;BME280;10039;42.632;23.408;2023-08-08T00:28:38;94854.16;;;20.10;65.48
19761;BME280;10039;42.632;23.408;2023-08-08T00:31:03;94864.06;;;20.13;66.06
19761;BME280;10039;42.632;23.408;2023-08-08T00:33:29;94833.69;;;19.89;65.65
19761;BME280;10039;42.632;23.408;2023-08-08T00:35:54;94858.63;;;20.13;65.56
19761;BME280;10039;42.632;23.408;2023-08-08T00:38:20;94841.00;;;20.03;66.06
19761;BME280;10039;42.632;23.408;2023-08-08T00:41:05;94817.22;;;19.92;66.17
19761;BME280;10039;42.632;23.408;2023-08-08T00:43:31;94831.97;;;19.91;66.77
19761;BME280;10039;42.632;23.408;2023-08-08T00:45:56;94869.88;;;20.06;66.46
19761;BME280;10039;42.632;23.408;2023-08-08T00:48:22;94816.06;;;19.79;66.76
19761;BME280;10039;42.632;23.408;2023-08-08T00:50:48;94851.06;;;20.17;66.66
19761;BME280;10039;42.632;23.408;2023-08-08T00:53:15;94848.03;;;19.95;66.23
19761;BME280;10039;42.632;23.408;2023-08-08T00:55:40;94856.03;;;19.84;65.89
19761;BME280;10039;42.632;23.408;2023-08-08T00:58:07;94831.50;;;19.38;64.76
19761;BME280;10039;42.632;23.408;2023-08-08T01:00:32;94862.47;;;19.52;64.67
19761;BME280;10039;42.632;23.408;2023-08-08T01:03:00;94839.09;;;19.20;63.51
19761;BME280;10039;42.632;23.408;2023-08-08T01:05:34;94855.78;;;19.18;64.90
19761;BME280;10039;42.632;23.408;2023-08-08T01:08:10;94809.22;;;18.86;65.21
19761;BME280;10039;42.632;23.408;2023-08-08T01:10:39;94834.97;;;19.10;64.93
19761;BME280;10039;42.632;23.408;2023-08-08T01:13:15;94850.84;;;19.17;65.06
19761;BME280;10039;42.632;23.408;2023-08-08T01:15:42;94874.81;;;19.10;65.23
19761;BME280;10039;42.632;23.408;2023-08-08T01:18:13;94855.59;;;18.93;65.06
19761;BME280;10039;42.632;23.408;2023-08-08T01:21:06;94828.63;;;18.55;64.55
19761;BME280;10039;42.632;23.408;2023-08-08T01:23:52;94848.22;;;18.65;65.34
19761;BME280;10039;42.632;23.408;2023-08-08T01:26:20;94841.41;;;18.69;65.59
19761;BME280;10039;42.632;23.408;2023-08-08T01:29:01;94839.63;;;18.14;65.52
19761;BME280;10039;42.632;23.408;2023-08-08T01:31:39;94843.66;;;17.95;66.25
19761;BME280;10039;42.632;23.408;2023-08-08T01:34:06;94831.06;;;17.69;67.05
19761;BME280;10039;42.632;23.408;2023-08-08T01:36:49;94880.88;;;18.14;67.57
19761;BME280;10039;42.632;23.408;2023-08-08T01:39:25;94860.19;;;17.88;67.38
19761;BME280;10039;42.632;23.408;2023-08-08T01:41:53;94889.50;;;18.04;68.23
19761;BME280;10039;42.632;23.408;2023-08-08T01:44:21;94861.22;;;17.67;68.49
19761;BME280;10039;42.632;23.408;2023-08-08T01:46:49;94885.25;;;17.89;68.15
19761;BME280;10039;42.632;23.408;2023-08-08T01:49:14;94865.16;;;17.90;67.45
19761;BME280;10039;42.632;23.408;2023-08-08T01:51:40;94891.13;;;18.10;66.68
19761;BME280;10039;42.632;23.408;2023-08-08T01:54:06;94894.91;;;17.81;67.30
19761;BME280;10039;42.632;23.408;2023-08-08T01:56:54;94934.44;;;17.93;67.23
19761;BME280;10039;42.632;23.408;2023-08-08T01:59:58;94883.91;;;17.61;68.06
19761;BME280;10039;42.632;23.408;2023-08-08T02:02:41;94877.91;;;17.66;68.06
19761;BME280;10039;42.632;23.408;2023-08-08T02:08:20;94885.13;;;17.60;67.93
19761;BME280;10039;42.632;23.408;2023-08-08T02:11:10;94913.84;;;17.72;67.68
19761;BME280;10039;42.632;23.408;2023-08-08T02:13:45;94895.59;;;17.67;67.88
19761;BME280;10039;42.632;23.408;2023-08-08T02:16:32;94916.34;;;17.84;67.77
19761;BME280;10039;42.632;23.408;2023-08-08T02:19:28;94888.25;;;17.58;68.04
19761;BME280;10039;42.632;23.408;2023-08-08T02:22:11;94901.59;;;17.62;68.19
19761;BME280;10039;42.632;23.408;2023-08-08T02:24:58;94910.84;;;17.70;68.08
19761;BME280;10039;42.632;23.408;2023-08-08T02:27:36;94966.97;;;17.98;67.23
19761;BME280;10039;42.632;23.408;2023-08-08T02:30:09;94930.94;;;17.69;67.75
19761;BME280;10039;42.632;23.408;2023-08-08T02:32:35;94943.25;;;17.70;67.82
19761;BME280;10039;42.632;23.408;2023-08-08T02:35:02;94965.19;;;17.95;68.50
19761;BME280;10039;42.632;23.408;2023-08-08T02:37:31;94942.28;;;17.82;67.12
19761;BME280;10039;42.632;23.408;2023-08-08T02:42:58;94934.50;;;17.84;67.33
19761;BME280;10039;42.632;23.408;2023-08-08T02:45:24;94910.09;;;17.69;67.36
19761;BME280;10039;42.632;23.408;2023-08-08T02:47:52;94951.16;;;17.82;68.22
19761;BME280;10039;42.632;23.408;2023-08-08T02:50:18;94954.47;;;17.77;68.13
19761;BME280;10039;42.632;23.408;2023-08-08T02:52:44;94961.66;;;17.80;68.23
19761;BME280;10039;42.632;23.408;2023-08-08T02:55:10;94976.75;;;17.96;67.47
19761;BME280;10039;42.632;23.408;2023-08-08T02:57:36;94928.91;;;17.64;67.51
19761;BME280;10039;42.632;23.408;2023-08-08T03:06:44;94990.72;;;17.85;67.57
19761;BME280;10039;42.632;23.408;2023-08-08T03:12:19;94970.09;;;17.73;68.03
19761;BME280;10039;42.632;23.408;2023-08-08T03:14:46;94948.09;;;17.57;68.62
19761;BME280;10039;42.632;23.408;2023-08-08T03:20:28;94943.81;;;17.74;66.13
19761;BME280;10039;42.632;23.408;2023-08-08T03:23:00;94969.25;;;17.91;66.83
19761;BME280;10039;42.632;23.408;2023-08-08T03:25:40;94986.91;;;18.00;66.66
19761;BME280;10039;42.632;23.408;2023-08-08T03:28:12;94946.81;;;17.76;66.31
19761;BME280;10039;42.632;23.408;2023-08-08T03:30:38;94941.13;;;17.74;67.21
19761;BME280;10039;42.632;23.408;2023-08-08T03:36:00;95001.91;;;18.01;66.74
19761;BME280;10039;42.632;23.408;2023-08-08T03:38:26;94989.25;;;17.84;67.03
19761;BME280;10039;42.632;23.408;2023-08-08T03:41:13;94961.03;;;17.85;66.84
19761;BME280;10039;42.632;23.408;2023-08-08T03:43:56;95004.16;;;18.03;66.58
19761;BME280;10039;42.632;23.408;2023-08-08T03:46:45;95015.72;;;18.03;67.20
19761;BME280;10039;42.632;23.408;2023-08-08T03:49:25;95022.97;;;17.89;67.11
19761;BME280;10039;42.632;23.408;2023-08-08T03:51:56;94994.38;;;17.73;67.48
19761;BME280;10039;42.632;23.408;2023-08-08T03:54:22;94974.50;;;17.62;67.65
19761;BME280;10039;42.632;23.408;2023-08-08T03:57:02;94961.91;;;17.59;66.99
19761;BME280;10039;42.632;23.408;2023-08-08T03:59:31;94972.91;;;17.79;67.55
19761;BME280;10039;42.632;23.408;2023-08-08T04:02:01;95005.25;;;17.97;67.30
19761;BME280;10039;42.632;23.408;2023-08-08T04:04:50;94990.91;;;17.82;66.53
19761;BME280;10039;42.632;23.408;2023-08-08T04:07:17;95027.47;;;17.92;67.04
19761;BME280;10039;42.632;23.408;2023-08-08T04:09:54;95030.47;;;17.94;66.79
19761;BME280;10039;42.632;23.408;2023-08-08T04:12:30;95002.59;;;17.88;66.77
19761;BME280;10039;42.632;23.408;2023-08-08T04:15:04;95010.22;;;17.89;66.82
19761;BME280;10039;42.632;23.408;2023-08-08T04:17:45;95017.19;;;18.04;66.54
19761;BME280;10039;42.632;23.408;2023-08-08T04:20:12;95002.59;;;17.79;66.18
19761;BME280;10039;42.632;23.408;2023-08-08T04:22:39;95019.38;;;17.92;65.82
19761;BME280;10039;42.632;23.408;2023-08-08T04:25:06;95006.06;;;17.79;65.76
19761;BME280;10039;42.632;23.408;2023-08-08T04:27:32;95016.69;;;17.83;65.89
19761;BME280;10039;42.632;23.408;2023-08-08T04:29:58;95012.88;;;17.66;66.90
19761;BME280;10039;42.632;23.408;2023-08-08T04:32:33;95024.38;;;17.84;66.43
19761;BME280;10039;42.632;23.408;2023-08-08T04:37:56;95043.78;;;18.06;65.85
19761;BME280;10039;42.632;23.408;2023-08-08T04:40:37;95039.16;;;17.98;66.34
19761;BME280;10039;42.632;23.408;2023-08-08T04:43:04;95022.41;;;17.85;66.52
19761;BME280;10039;42.632;23.408;2023-08-08T04:46:10;95030.00;;;17.95;65.59
19761;BME280;10039;42.632;23.408;2023-08-08T04:49:08;95062.78;;;18.29;65.17
19761;BME280;10039;42.632;23.408;2023-08-08T04:51:50;95073.28;;;18.27;65.32
19761;BME280;10039;42.632;23.408;2023-08-08T04:54:39;95017.69;;;18.03;65.14
19761;BME280;10039;42.632;23.408;2023-08-08T04:57:34;95000.09;;;18.07;64.44
19761;BME280;10039;42.632;23.408;2023-08-08T05:00:40;95030.19;;;18.24;64.04
19761;BME280;10039;42.632;23.408;2023-08-08T05:03:18;95053.34;;;18.48;64.46
19761;BME280;10039;42.632;23.408;2023-08-08T05:05:57;95022.25;;;18.20;63.96
19761;BME280;10039;42.632;23.408;2023-08-08T05:08:32;95075.09;;;18.54;63.61
19761;BME280;10039;42.632;23.408;2023-08-08T05:17:04;95112.63;;;18.28;64.14
19761;BME280;10039;42.632;23.408;2023-08-08T05:19:56;95068.13;;;17.97;64.46
19761;BME280;10039;42.632;23.408;2023-08-08T05:22:40;95111.72;;;18.22;64.55
19761;BME280;10039;42.632;23.408;2023-08-08T05:27:58;95100.66;;;18.02;64.80
19761;BME280;10039;42.632;23.408;2023-08-08T05:30:44;95076.38;;;17.94;64.66
19761;BME280;10039;42.632;23.408;2023-08-08T05:33:46;95127.63;;;18.20;64.62
19761;BME280;10039;42.632;23.408;2023-08-08T05:36:35;95123.41;;;18.19;64.98
19761;BME280;10039;42.632;23.408;2023-08-08T05:42:17;95140.66;;;18.22;64.33
19761;BME280;10039;42.632;23.408;2023-08-08T05:45:19;95117.63;;;17.94;64.52
19761;BME280;10039;42.632;23.408;2023-08-08T05:48:04;95096.84;;;17.68;65.10
19761;BME280;10039;42.632;23.408;2023-08-08T05:51:18;95120.69;;;17.78;64.69
19761;BME280;10039;42.632;23.408;2023-08-08T05:54:05;95108.09;;;17.75;65.33
19761;BME280;10039;42.632;23.408;2023-08-08T05:56:38;95127.66;;;18.02;65.39
19761;BME280;10039;42.632;23.408;2023-08-08T05:59:28;95106.22;;;17.99;64.62
19761;BME280;10039;42.632;23.408;2023-08-08T06:02:25;95109.38;;;17.98;63.85
19761;BME280;10039;42.632;23.408;2023-08-08T06:05:19;95142.34;;;18.19;64.03
19761;BME280;10039;42.632;23.408;2023-08-08T06:07:52;95170.56;;;18.27;63.91
19761;BME280;10039;42.632;23.408;2023-08-08T06:10:42;95137.53;;;18.14;62.54
19761;BME280;10039;42.632;23.408;2023-08-08T06:13:23;95142.50;;;18.25;62.41
19761;BME280;10039;42.632;23.408;2023-08-08T06:16:00;95125.53;;;18.15;62.56
19761;BME280;10039;42.632;23.408;2023-08-08T06:19:21;95134.66;;;18.18;62.18
19761;BME280;10039;42.632;23.408;2023-08-08T06:27:12;95160.19;;;18.67;63.68
19761;BME280;10039;42.632;23.408;2023-08-08T06:29:40;95126.53;;;18.45;62.29
19761;BME280;10039;42.632;23.408;2023-08-08T06:35:44;95119.06;;;18.87;62.28
19761;BME280;10039;42.632;23.408;2023-08-08T06:38:44;95119.84;;;18.87;59.22
19761;BME280;10039;42.632;23.408;2023-08-08T06:44:24;95157.09;;;19.39;58.67
19761;BME280;10039;42.632;23.408;2023-08-08T06:46:56;95132.06;;;19.29;58.36
19761;BME280;10039;42.632;23.408;2023-08-08T06:49:23;95162.44;;;19.48;57.18
19761;BME280;10039;42.632;23.408;2023-08-08T06:52:11;95176.47;;;19.61;57.78
19761;BME280;10039;42.632;23.408;2023-08-08T06:55:05;95125.25;;;19.34;57.23
19761;BME280;10039;42.632;23.408;2023-08-08T06:57:53;95168.69;;;19.92;57.06
19761;BME280;10039;42.632;23.408;2023-08-08T07:00:38;95122.16;;;19.79;56.04
19761;BME280;10039;42.632;23.408;2023-08-08T07:03:05;95150.69;;;19.89;56.03
19761;BME280;10039;42.632;23.408;2023-08-08T07:06:13;95122.13;;;19.50;55.02
19761;BME280;10039;42.632;23.408;2023-08-08T07:12:05;95130.31;;;19.41;54.33
19761;BME280;10039;42.632;23.408;2023-08-08T07:14:51;95135.44;;;19.39;53.29
19761;BME280;10039;42.632;23.408;2023-08-08T07:20:55;95136.66;;;19.38;54.00
19761;BME280;10039;42.632;23.408;2023-08-08T07:23:39;95121.69;;;19.28;52.79
19761;BME280;10039;42.632;23.408;2023-08-08T07:26:11;95155.94;;;19.54;53.16
19761;BME280;10039;42.632;23.408;2023-08-08T07:29:09;95173.44;;;19.44;52.31
19761;BME280;10039;42.632;23.408;2023-08-08T07:31:38;95117.75;;;19.29;53.75
19761;BME280;10039;42.632;23.408;2023-08-08T07:34:24;95145.59;;;19.67;52.46
19761;BME280;10039;42.632;23.408;2023-08-08T07:40:20;95180.47;;;19.74;52.44
19761;BME280;10039;42.632;23.408;2023-08-08T07:43:52;95136.31;;;19.45;51.72
19761;BME280;10039;42.632;23.408;2023-08-08T07:46:28;95127.00;;;19.75;51.76
19761;BME280;10039;42.632;23.408;2023-08-08T07:49:48;95148.09;;;20.09;50.85
19761;BME280;10039;42.632;23.408;2023-08-08T07:55:55;95136.38;;;19.88;50.43
19761;BME280;10039;42.632;23.408;2023-08-08T07:58:31;95133.03;;;20.08;50.62
19761;BME280;10039;42.632;23.408;2023-08-08T08:01:00;95149.94;;;20.46;49.44
19761;BME280;10039;42.632;23.408;2023-08-08T08:03:40;95150.75;;;20.81;50.29
19761;BME280;10039;42.632;23.408;2023-08-08T08:06:07;95175.25;;;20.86;49.53
19761;BME280;10039;42.632;23.408;2023-08-08T08:08:39;95124.72;;;20.74;49.89
19761;BME280;10039;42.632;23.408;2023-08-08T08:11:13;95122.75;;;20.40;48.73
19761;BME280;10039;42.632;23.408;2023-08-08T08:13:45;95142.31;;;20.64;48.70
19761;BME280;10039;42.632;23.408;2023-08-08T08:16:40;95158.56;;;20.79;48.21
19761;BME280;10039;42.632;23.408;2023-08-08T08:19:43;95162.25;;;20.61;48.63
19761;BME280;10039;42.632;23.408;2023-08-08T08:22:28;95116.38;;;20.43;48.94
19761;BME280;10039;42.632;23.408;2023-08-08T08:24:53;95140.66;;;20.81;48.53
19761;BME280;10039;42.632;23.408;2023-08-08T08:27:27;95138.94;;;20.69;47.55
19761;BME280;10039;42.632;23.408;2023-08-08T08:29:55;95162.16;;;20.85;48.21
19761;BME280;10039;42.632;23.408;2023-08-08T08:32:29;95177.34;;;21.31;47.96
19761;BME280;10039;42.632;23.408;2023-08-08T08:35:19;95124.50;;;20.92;46.26
19761;BME280;10039;42.632;23.408;2023-08-08T08:38:06;95116.41;;;20.63;47.91
19761;BME280;10039;42.632;23.408;2023-08-08T08:43:45;95144.94;;;20.88;48.69
19761;BME280;10039;42.632;23.408;2023-08-08T08:46:29;95134.34;;;20.90;48.86
19761;BME280;10039;42.632;23.408;2023-08-08T08:48:58;95112.31;;;21.02;48.98
19761;BME280;10039;42.632;23.408;2023-08-08T08:51:31;95109.84;;;21.24;48.37
19761;BME280;10039;42.632;23.408;2023-08-08T08:54:15;95155.38;;;21.69;48.42
19761;BME280;10039;42.632;23.408;2023-08-08T08:56:45;95117.59;;;21.31;48.18
19761;BME280;10039;42.632;23.408;2023-08-08T08:59:17;95114.47;;;21.38;47.40
19761;BME280;10039;42.632;23.408;2023-08-08T09:02:41;95122.00;;;21.09;47.87
19761;BME280;10039;42.632;23.408;2023-08-08T09:05:12;95134.09;;;21.28;47.49
19761;BME280;10039;42.632;23.408;2023-08-08T09:10:37;95125.81;;;21.17;47.85
19761;BME280;10039;42.632;23.408;2023-08-08T09:13:18;95125.34;;;21.18;48.29
19761;BME280;10039;42.632;23.408;2023-08-08T09:15:49;95146.13;;;21.41;48.20
19761;BME280;10039;42.632;23.408;2023-08-08T09:18:15;95135.53;;;21.63;47.64
19761;BME280;10039;42.632;23.408;2023-08-08T09:20:41;95153.59;;;21.66;48.40
19761;BME280;10039;42.632;23.408;2023-08-08T09:23:09;95115.06;;;21.48;46.60
19761;BME280;10039;42.632;23.408;2023-08-08T09:28:23;95124.38;;;21.21;47.28
19761;BME280;10039;42.632;23.408;2023-08-08T09:31:00;95140.28;;;21.28;47.87
19761;BME280;10039;42.632;23.408;2023-08-08T09:33:34;95111.06;;;21.23;47.75
19761;BME280;10039;42.632;23.408;2023-08-08T09:36:19;95164.19;;;21.44;46.84
19761;BME280;10039;42.632;23.408;2023-08-08T09:38:45;95142.38;;;21.19;47.80
19761;BME280;10039;42.632;23.408;2023-08-08T09:41:12;95174.91;;;21.53;47.57
19761;BME280;10039;42.632;23.408;2023-08-08T09:43:39;95145.44;;;21.66;47.58
19761;BME280;10039;42.632;23.408;2023-08-08T09:46:18;95167.19;;;21.46;46.62
19761;BME280;10039;42.632;23.408;2023-08-08T09:48:53;95120.50;;;21.08;47.23
19761;BME280;10039;42.632;23.408;2023-08-08T09:51:31;95144.44;;;21.24;47.42
19761;BME280;10039;42.632;23.408;2023-08-08T09:53:59;95139.69;;;21.58;48.06
19761;BME280;10039;42.632;23.408;2023-08-08T09:56:25;95145.41;;;21.86;47.12
19761;BME280;10039;42.632;23.408;2023-08-08T09:58:52;95134.97;;;21.79;46.85
19761;BME280;10039;42.632;23.408;2023-08-08T10:01:20;95148.81;;;22.06;46.00
19761;BME280;10039;42.632;23.408;2023-08-08T10:03:51;95164.88;;;22.30;45.24
19761;BME280;10039;42.632;23.408;2023-08-08T10:06:17;95153.63;;;21.91;46.36
19761;BME280;10039;42.632;23.408;2023-08-08T15:40:11;95034.50;;;26.44;37.80
19761;BME280;10039;42.632;23.408;2023-08-08T15:42:37;94989.75;;;25.72;38.12
19761;BME280;10039;42.632;23.408;2023-08-08T15:45:12;94991.72;;;25.37;39.23
19761;BME280;10039;42.632;23.408;2023-08-08T15:47:50;95017.59;;;25.36;40.36
19761;BME280;10039;42.632;23.408;2023-08-08T15:50:26;95007.13;;;24.78;40.22
19761;BME280;10039;42.632;23.408;2023-08-08T15:53:01;95023.25;;;24.81;41.20
19761;BME280;10039;42.632;23.408;2023-08-08T15:55:39;95019.84;;;24.42;40.81
19761;BME280;10039;42.632;23.408;2023-08-08T15:58:09;94995.56;;;24.06;41.63
19761;BME280;10039;42.632;23.408;2023-08-08T16:03:30;95022.59;;;23.82;42.46
19761;BME280;10039;42.632;23.408;2023-08-08T16:05:56;95049.38;;;23.89;42.35
19761;BME280;10039;42.632;23.408;2023-08-08T16:08:22;95035.50;;;23.87;42.21
19761;BME280;10039;42.632;23.408;2023-08-08T16:11:17;95062.78;;;24.03;42.19
19761;BME280;10039;42.632;23.408;2023-08-08T16:13:49;95036.69;;;23.70;42.39
19761;BME280;10039;42.632;23.408;2023-08-08T16:16:17;95040.34;;;23.50;42.18
19761;BME280;10039;42.632;23.408;2023-08-08T16:18:45;95032.13;;;23.28;42.87
19761;BME280;10039;42.632;23.408;2023-08-08T16:21:11;95026.28;;;22.93;43.39
19761;BME280;10039;42.632;23.408;2023-08-08T16:23:46;95042.41;;;23.02;44.16
19761;BME280;10039;42.632;23.408;2023-08-08T16:26:12;95036.63;;;22.84;44.15
19761;BME280;10039;42.632;23.408;2023-08-08T16:28:50;95068.63;;;22.94;43.53
19761;BME280;10039;42.632;23.408;2023-08-08T16:31:19;95029.34;;;22.65;43.82
19761;BME280;10039;42.632;23.408;2023-08-08T16:33:55;95060.63;;;22.85;44.06
19761;BME280;10039;42.632;23.408;2023-08-08T16:36:22;95061.09;;;22.78;44.72
19761;BME280;10039;42.632;23.408;2023-08-08T16:38:48;95069.03;;;22.76;44.38
19761;BME280;10039;42.632;23.408;2023-08-08T16:41:14;95090.84;;;22.87;44.11
19761;BME280;10039;42.632;23.408;2023-08-08T16:43:47;95053.00;;;22.48;44.33
19761;BME280;10039;42.632;23.408;2023-08-08T16:46:19;95099.69;;;22.71;44.77
19761;BME280;10039;42.632;23.408;2023-08-08T16:48:48;95082.53;;;22.60;45.10
19761;BME280;10039;42.632;23.408;2023-08-08T16:51:17;95121.19;;;22.69;44.84
19761;BME280;10039;42.632;23.408;2023-08-08T16:53:46;95072.25;;;22.39;45.14
19761;BME280;10039;42.632;23.408;2023-08-08T16:56:18;95074.38;;;22.29;44.57
19761;BME280;10039;42.632;23.408;2023-08-08T16:58:44;95085.03;;;22.33;44.33
19761;BME280;10039;42.632;23.408;2023-08-08T17:01:10;95078.09;;;22.32;44.79
19761;BME280;10039;42.632;23.408;2023-08-08T17:03:41;95069.81;;;22.15;45.49
19761;BME280;10039;42.632;23.408;2023-08-08T17:06:10;95080.28;;;22.28;44.48
19761;BME280;10039;42.632;23.408;2023-08-08T17:08:36;95078.25;;;22.23;44.63
19761;BME280;10039;42.632;23.408;2023-08-08T17:11:02;95120.19;;;22.36;45.36
19761;BME280;10039;42.632;23.408;2023-08-08T17:13:32;95110.63;;;22.21;45.05
19761;BME280;10039;42.632;23.408;2023-08-08T17:16:01;95105.16;;;22.15;44.97
19761;BME280;10039;42.632;23.408;2023-08-08T17:18:30;95088.38;;;21.91;45.62
19761;BME280;10039;42.632;23.408;2023-08-08T17:20:56;95126.53;;;22.28;45.41
19761;BME280;10039;42.632;23.408;2023-08-08T17:23:29;95137.56;;;22.19;45.22
19761;BME280;10039;42.632;23.408;2023-08-08T17:25:56;95113.66;;;21.97;45.71
19761;BME280;10039;42.632;23.408;2023-08-08T17:28:22;95082.00;;;21.69;45.96
19761;BME280;10039;42.632;23.408;2023-08-08T17:30:51;95103.19;;;21.65;46.02
19761;BME280;10039;42.632;23.408;2023-08-08T17:33:17;95097.75;;;21.65;46.20
19761;BME280;10039;42.632;23.408;2023-08-08T17:35:45;95121.44;;;21.84;45.93
19761;BME280;10039;42.632;23.408;2023-08-08T17:38:19;95146.69;;;21.90;46.64
19761;BME280;10039;42.632;23.408;2023-08-08T17:40:56;95109.44;;;21.51;46.05
19761;BME280;10039;42.632;23.408;2023-08-08T17:43:23;95097.56;;;21.09;47.42
19761;BME280;10039;42.632;23.408;2023-08-08T17:45:50;95113.38;;;20.90;47.67
19761;BME280;10039;42.632;23.408;2023-08-08T17:48:23;95114.78;;;20.86;47.48
19761;BME280;10039;42.632;23.408;2023-08-08T17:50:59;95135.94;;;20.82;47.78
19761;BME280;10039;42.632;23.408;2023-08-08T17:53:27;95110.66;;;20.56;48.57
19761;BME280;10039;42.632;23.408;2023-08-08T17:55:55;95120.34;;;20.62;48.34
19761;BME280;10039;42.632;23.408;2023-08-08T17:58:39;95172.97;;;20.99;48.75
19761;BME280;10039;42.632;23.408;2023-08-08T18:01:13;95168.97;;;21.15;48.50
19761;BME280;10039;42.632;23.408;2023-08-08T18:03:44;95159.63;;;21.16;48.23
19761;BME280;10039;42.632;23.408;2023-08-08T18:06:22;95150.47;;;21.13;47.87
19761;BME280;10039;42.632;23.408;2023-08-08T18:08:52;95132.75;;;20.98;48.22
19761;BME280;10039;42.632;23.408;2023-08-08T18:11:26;95144.75;;;21.11;48.23
19761;BME280;10039;42.632;23.408;2023-08-08T18:14:04;95149.38;;;21.25;47.45
19761;BME280;10039;42.632;23.408;2023-08-08T18:16:34;95173.97;;;21.36;47.54
19761;BME280;10039;42.632;23.408;2023-08-08T18:19:01;95166.09;;;21.38;48.03
19761;BME280;10039;42.632;23.408;2023-08-08T18:21:33;95155.16;;;21.33;47.52
19761;BME280;10039;42.632;23.408;2023-08-08T18:24:11;95185.50;;;21.51;47.96
19761;BME280;10039;42.632;23.408;2023-08-08T18:26:39;95154.31;;;21.07;48.18
19761;BME280;10039;42.632;23.408;2023-08-08T18:29:06;95158.25;;;21.06;48.58
19761;BME280;10039;42.632;23.408;2023-08-08T18:31:32;95190.94;;;21.31;48.35
19761;BME280;10039;42.632;23.408;2023-08-08T18:34:20;95153.97;;;21.19;48.04
19761;BME280;10039;42.632;23.408;2023-08-08T18:36:56;95200.56;;;21.52;48.23
19761;BME280;10039;42.632;23.408;2023-08-08T18:39:36;95176.13;;;21.12;48.61
19761;BME280;10039;42.632;23.408;2023-08-08T18:42:08;95166.31;;;21.00;48.96
19761;BME280;10039;42.632;23.408;2023-08-08T18:44:35;95189.75;;;21.18;49.16
19761;BME280;10039;42.632;23.408;2023-08-08T18:47:05;95220.78;;;21.31;48.75
19761;BME280;10039;42.632;23.408;2023-08-08T18:49:32;95164.41;;;20.86;49.23
19761;BME280;10039;42.632;23.408;2023-08-08T18:51:58;95186.81;;;21.01;48.88
19761;BME280;10039;42.632;23.408;2023-08-08T18:54:33;95215.34;;;21.11;49.26
19761;BME280;10039;42.632;23.408;2023-08-08T18:57:00;95180.28;;;20.79;49.82
19761;BME280;10039;42.632;23.408;2023-08-08T18:59:29;95205.91;;;20.92;49.55
19761;BME280;10039;42.632;23.408;2023-08-08T19:01:58;95213.97;;;21.01;49.73
19761;BME280;10039;42.632;23.408;2023-08-08T19:04:27;95191.91;;;20.79;49.74
19761;BME280;10039;42.632;23.408;2023-08-08T19:06:56;95215.41;;;20.82;50.65
19761;BME280;10039;42.632;23.408;2023-08-08T19:09:30;95211.75;;;20.85;50.73
19761;BME280;10039;42.632;23.408;2023-08-08T19:12:02;95214.06;;;20.92;50.31
19761;BME280;10039;42.632;23.408;2023-08-08T19:14:34;95180.75;;;20.77;50.35
19761;BME280;10039;42.632;23.408;2023-08-08T19:17:00;95189.66;;;20.63;50.83
19761;BME280;10039;42.632;23.408;2023-08-08T19:19:26;95212.09;;;20.78;51.09
19761;BME280;10039;42.632;23.408;2023-08-08T19:21:56;95189.50;;;20.52;51.15
19761;BME280;10039;42.632;23.408;2023-08-08T19:24:24;95201.66;;;20.57;51.31
19761;BME280;10039;42.632;23.408;2023-08-08T19:26:53;95195.75;;;20.58;51.10
19761;BME280;10039;42.632;23.408;2023-08-08T19:29:22;95229.88;;;20.79;51.39
19761;BME280;10039;42.632;23.408;2023-08-08T19:31:47;95215.47;;;20.73;51.59
19761;BME280;10039;42.632;23.408;2023-08-08T19:34:17;95196.88;;;20.52;51.86
19761;BME280;10039;42.632;23.408;2023-08-08T19:36:43;95204.00;;;20.49;51.85
19761;BME280;10039;42.632;23.408;2023-08-08T19:39:11;95221.38;;;20.57;51.88
19761;BME280;10039;42.632;23.408;2023-08-08T19:41:41;95190.91;;;20.33;52.01
19761;BME280;10039;42.632;23.408;2023-08-08T19:44:08;95216.91;;;20.54;51.78
19761;BME280;10039;42.632;23.408;2023-08-08T19:46:36;95199.78;;;20.34;52.16
19761;BME280;10039;42.632;23.408;2023-08-08T19:49:02;95226.16;;;20.62;51.96
19761;BME280;10039;42.632;23.408;2023-08-08T19:51:31;95211.22;;;20.38;51.91
19761;BME280;10039;42.632;23.408;2023-08-08T19:54:05;95244.69;;;20.49;52.54
19761;BME280;10039;42.632;23.408;2023-08-08T19:56:37;95196.31;;;20.33;52.23
19761;BME280;10039;42.632;23.408;2023-08-08T19:59:22;95217.44;;;20.30;52.69
19761;BME280;10039;42.632;23.408;2023-08-08T20:01:48;95220.06;;;20.24;52.73
19761;BME280;10039;42.632;23.408;2023-08-08T20:04:19;95250.91;;;20.27;52.94
19761;BME280;10039;42.632;23.408;2023-08-08T20:06:48;95202.09;;;20.12;53.09
19761;BME280;10039;42.632;23.408;2023-08-08T20:09:20;95229.78;;;20.31;53.21
19761;BME280;10039;42.632;23.408;2023-08-08T20:11:46;95209.84;;;20.05;52.85
19761;BME280;10039;42.632;23.408;2023-08-08T20:14:12;95244.66;;;20.21;53.33